createdAt,value
2022-11-17T00:05:11.622Z,10.1
2022-11-17T00:15:13.622Z,10.2
2022-11-17T00:25:15.556Z,10.3
2022-11-17T00:35:17.469Z,10.2
2022-11-17T00:45:19.775Z,10.2
2022-11-17T00:55:21.637Z,10.3
2022-11-17T01:15:26.064Z,10.4
2022-11-17T01:25:27.841Z,10.4
2022-11-17T01:35:30.522Z,10.4
2022-11-17T01:45:32.511Z,10.5
2022-11-17T01:55:34.903Z,10.4
2022-11-17T02:05:37.307Z,10.3
2022-11-17T02:25:42.294Z,10
2022-11-17T02:35:44.829Z,10
2022-11-17T02:45:47.481Z,9.9
2022-11-17T02:55:49.318Z,9.9
2022-11-17T03:05:51.434Z,9.9
2022-11-17T03:15:54.046Z,9.9
2022-11-17T03:25:55.810Z,9.9
2022-11-17T03:35:57.973Z,9.8
2022-11-17T03:46:00.277Z,9.8
2022-11-17T03:56:02.646Z,9.8
2022-11-17T04:16:06.445Z,9.8
2022-11-17T04:26:08.202Z,9.8
2022-11-17T04:36:10.441Z,9.8
2022-11-17T04:46:12.465Z,9.9
2022-11-17T04:56:14.689Z,10
2022-11-17T05:06:17.159Z,10
2022-11-17T05:16:19.077Z,10.1
2022-11-17T05:26:21.486Z,10.1
2022-11-17T05:36:23.281Z,10.1
2022-11-17T05:46:25.728Z,10
2022-11-17T05:56:27.420Z,10
2022-11-17T06:06:29.745Z,10
2022-11-17T06:16:31.838Z,10.1
2022-11-17T06:26:34.403Z,10.1
2022-11-17T06:29:28.917Z,10.1
2022-11-17T06:36:46.544Z,10
2022-11-17T06:46:49.263Z,9.9
2022-11-17T06:56:50.999Z,9.9
2022-11-17T07:06:52.816Z,10
2022-11-17T07:16:54.552Z,10.3
2022-11-17T07:26:56.917Z,10.4
2022-11-17T07:36:59.304Z,10.3
2022-11-17T07:47:01.668Z,10.3
2022-11-17T07:57:03.424Z,10.4
2022-11-17T08:07:05.185Z,10.4
2022-11-17T08:17:07.736Z,10.5
2022-11-17T08:27:10.045Z,10.5
2022-11-17T08:37:12.611Z,10.4
2022-11-17T08:47:14.974Z,10.5
2022-11-17T08:57:17.064Z,10.5
2022-11-17T09:07:19.264Z,10.2
2022-11-17T09:17:21.123Z,10.2
2022-11-17T09:27:22.850Z,10.3
2022-11-17T09:37:24.613Z,10.3
2022-11-17T10:07:32.000Z,10.7
2022-11-17T10:17:34.634Z,10.8
2022-11-17T10:27:36.337Z,10.8
2022-11-17T10:37:38.968Z,11
2022-11-17T10:47:41.268Z,11.2
2022-11-17T11:07:44.913Z,11.5
2022-11-17T11:17:47.245Z,11.8
2022-11-17T11:27:48.967Z,12.2
2022-11-17T11:37:51.243Z,12.3
2022-11-17T11:47:53.416Z,12.2
2022-11-17T11:57:55.873Z,12.2
2022-11-17T12:18:00.369Z,12.1
2022-11-17T12:28:02.778Z,12.1
2022-11-17T12:38:05.034Z,12.1
2022-11-17T12:48:32.142Z,12
2022-11-17T12:58:10.605Z,12
2022-11-17T13:08:11.260Z,11.9
2022-11-17T13:18:13.372Z,12
2022-11-17T13:28:15.336Z,11.9
2022-11-17T13:38:17.819Z,11.8
2022-11-17T13:48:20.457Z,11.7
2022-11-17T13:58:26.364Z,11.7
2022-11-17T14:08:25.299Z,11.7
2022-11-17T14:18:27.015Z,11.7
2022-11-17T14:28:29.362Z,11.7
2022-11-17T14:38:31.666Z,11.6
2022-11-17T14:48:33.593Z,11.5
2022-11-17T14:58:35.422Z,11.4
2022-11-17T15:08:37.680Z,11.3
2022-11-17T15:18:40.021Z,11.2
2022-11-17T15:28:41.970Z,11.3
2022-11-17T15:38:44.191Z,11.2
2022-11-17T15:48:46.751Z,11.2
2022-11-17T16:08:51.087Z,11.2
2022-11-17T16:18:53.519Z,11.2
2022-11-17T16:28:56.019Z,11.3
2022-11-17T16:39:01.165Z,11.2
2022-11-17T16:49:00.469Z,11.1
2022-11-17T16:59:02.607Z,11.2
2022-11-17T17:09:04.773Z,10.9
2022-11-17T17:19:06.902Z,10.7
2022-11-17T17:29:09.041Z,10.5
2022-11-17T17:39:11.512Z,10.3
2022-11-17T17:49:13.466Z,10.6
2022-11-17T17:59:16.092Z,10.5
2022-11-17T18:09:18.087Z,10.1
2022-11-17T18:29:21.673Z,10.1
2022-11-17T18:39:23.638Z,10
2022-11-17T18:49:25.921Z,9.8
2022-11-17T18:59:28.046Z,10
2022-11-17T19:09:30.063Z,10.4
2022-11-17T19:19:32.449Z,10.5
2022-11-17T19:39:36.993Z,10.6
2022-11-17T19:49:38.765Z,10.5
2022-11-17T19:59:40.849Z,10.4
2022-11-17T20:09:42.912Z,10.3
2022-11-17T20:19:44.692Z,10.2
2022-11-17T20:29:46.508Z,10.1
2022-11-17T20:39:48.375Z,10.1
2022-11-17T20:49:50.470Z,10.1
2022-11-17T20:59:52.205Z,9.9
2022-11-17T21:19:56.897Z,9.6
2022-11-17T21:29:59.275Z,9.5
2022-11-17T21:40:01.741Z,9.5
2022-11-17T21:50:03.472Z,9.4
2022-11-17T22:00:06.064Z,9.3
2022-11-17T22:10:08.633Z,9.2
2022-11-17T22:20:11.050Z,9.1
2022-11-17T22:30:13.035Z,9.1
2022-11-17T22:40:14.871Z,9
2022-11-17T22:50:16.888Z,9
2022-11-17T23:00:19.130Z,9.2
2022-11-17T23:10:21.801Z,9.2
2022-11-17T23:20:24.190Z,9.1
2022-11-17T23:30:26.461Z,9
2022-11-17T23:40:28.294Z,8.9
2022-11-17T23:50:30.963Z,8.9
